Time;durP1;ratioP1;P1;durP2;ratioP2;P2;SDS_P1;SDS_P2;PMS_P1;PMS_P2;Temp;Humidity;BMP_temperature;BMP_pressure;BME280_temperature;BME280_humidity;BME280_pressure;Samples;Min_cycle;Max_cycle;Signal;HPM_P1;HPM_P2
2022/07/16 00:03:07;;;;;;;1.73;1.58;;;14.90;99.90;;;;;;5240072;28;20020;-59
2022/07/16 00:05:44;;;;;;;3.37;2.23;;;14.90;99.90;;;;;;5213606;28;20406;-60
2022/07/16 00:08:15;;;;;;;1.40;1.30;;;14.90;99.90;;;;;;5222711;28;20034;-60
2022/07/16 00:10:47;;;;;;;1.60;1.50;;;15.00;99.90;;;;;;5236736;28;20034;-61
2022/07/16 00:13:20;;;;;;;1.60;1.50;;;14.90;99.90;;;;;;5245399;28;20023;-59
2022/07/16 00:15:56;;;;;;;2.90;1.60;;;14.90;99.90;;;;;;5240395;28;20305;-59
2022/07/16 00:21:22;;;;;;;1.48;1.38;;;14.80;99.90;;;;;;5227423;28;20029;-60
2022/07/16 00:23:59;;;;;;;1.75;1.38;;;14.80;99.90;;;;;;5219291;28;20036;-60
2022/07/16 00:26:30;;;;;;;2.80;1.55;;;14.70;99.90;;;;;;5216295;28;20333;-59
2022/07/16 00:29:04;;;;;;;1.40;1.30;;;14.60;99.90;;;;;;5228427;28;20028;-60
2022/07/16 00:31:35;;;;;;;1.42;1.30;;;14.50;99.90;;;;;;5236498;28;20174;-58
2022/07/16 00:34:07;;;;;;;1.70;1.60;;;14.50;99.90;;;;;;5220990;28;20190;-61
2022/07/16 00:36:39;;;;;;;3.17;1.30;;;14.50;99.90;;;;;;5223655;28;20028;-61
2022/07/16 00:39:12;;;;;;;2.00;1.80;;;14.40;99.90;;;;;;5220928;28;20341;-60
2022/07/16 00:41:49;;;;;;;1.70;1.20;;;14.40;99.90;;;;;;5222846;28;20493;-60
2022/07/16 00:44:23;;;;;;;2.33;1.50;;;14.40;99.90;;;;;;5238018;28;20166;-59
2022/07/16 00:46:57;;;;;;;1.52;1.35;;;14.40;99.90;;;;;;5220975;28;20050;-59
2022/07/16 00:49:33;;;;;;;2.17;1.60;;;14.40;99.90;;;;;;5241002;28;20026;-60
2022/07/16 00:52:04;;;;;;;1.48;1.38;;;14.40;99.90;;;;;;5241829;28;20030;-59
2022/07/16 00:54:46;;;;;;;1.50;1.40;;;14.40;99.90;;;;;;5203240;28;20024;-59
2022/07/16 00:57:20;;;;;;;1.60;1.50;;;14.40;99.90;;;;;;5217891;28;20042;-61
2022/07/16 00:59:51;;;;;;;1.42;1.33;;;14.40;99.90;;;;;;5203100;28;20404;-60
2022/07/16 01:02:22;;;;;;;2.05;1.50;;;14.40;99.90;;;;;;5238876;28;20443;-61
2022/07/16 01:04:54;;;;;;;3.22;1.13;;;14.30;99.90;;;;;;5228774;28;20298;-61
2022/07/16 01:07:28;;;;;;;3.55;1.70;;;14.30;99.90;;;;;;5218158;28;20047;-60
2022/07/16 01:10:06;;;;;;;3.25;1.83;;;14.30;99.90;;;;;;5240818;28;20040;-61
2022/07/16 01:12:43;;;;;;;2.50;1.55;;;14.20;99.90;;;;;;5237002;28;20028;-60
2022/07/16 01:15:14;;;;;;;2.25;1.60;;;14.20;99.90;;;;;;5237285;28;20124;-61
2022/07/16 01:17:51;;;;;;;2.78;1.40;;;14.20;99.90;;;;;;5239430;28;20252;-60
2022/07/16 01:20:22;;;;;;;1.98;1.63;;;14.30;99.90;;;;;;5219201;28;20540;-61
2022/07/16 01:22:54;;;;;;;1.88;1.70;;;14.40;99.90;;;;;;5237876;28;20054;-61
2022/07/16 01:25:26;;;;;;;1.73;1.60;;;14.40;99.90;;;;;;5237302;28;20024;-61
2022/07/16 01:28:03;;;;;;;2.28;1.60;;;14.40;99.90;;;;;;5238245;28;20027;-60
2022/07/16 01:30:36;;;;;;;1.70;1.60;;;14.30;99.90;;;;;;5239792;28;20540;-60
2022/07/16 01:33:22;;;;;;;3.40;1.73;;;14.20;99.90;;;;;;5230182;28;20036;-60
2022/07/16 01:36:08;;;;;;;1.83;1.50;;;14.10;99.90;;;;;;5237572;28;20263;-64
2022/07/16 01:38:50;;;;;;;11.77;1.67;;;14.00;99.90;;;;;;5239487;28;20027;-60
2022/07/16 01:41:22;;;;;;;1.42;1.33;;;14.00;99.90;;;;;;5239029;28;20314;-59
2022/07/16 01:43:57;;;;;;;2.40;1.50;;;14.00;99.90;;;;;;5238877;28;20016;-60
2022/07/16 01:46:31;;;;;;;2.63;1.83;;;14.00;99.90;;;;;;5239142;28;20047;-60
2022/07/16 01:49:04;;;;;;;2.17;1.60;;;13.90;99.90;;;;;;5219668;28;20054;-61
2022/07/16 01:51:39;;;;;;;1.45;1.35;;;13.80;99.90;;;;;;5237301;28;20024;-59
2022/07/16 01:54:11;;;;;;;1.70;1.60;;;13.80;99.90;;;;;;5240372;28;20277;-60
2022/07/16 01:56:45;;;;;;;1.95;1.77;;;13.80;99.90;;;;;;5218847;28;20046;-61
2022/07/16 01:59:17;;;;;;;2.95;1.55;;;13.80;99.90;;;;;;5221710;28;20021;-62
2022/07/16 02:01:51;;;;;;;2.10;1.58;;;13.70;99.90;;;;;;5222682;28;20051;-60
2022/07/16 02:04:22;;;;;;;2.88;1.60;;;13.70;99.90;;;;;;5211093;28;20029;-59
2022/07/16 02:06:55;;;;;;;1.73;1.63;;;13.60;99.90;;;;;;5240897;28;20032;-59
2022/07/16 02:09:27;;;;;;;1.95;1.80;;;13.60;99.90;;;;;;5236968;28;20035;-60
2022/07/16 02:12:06;;;;;;;4.22;1.60;;;13.60;99.90;;;;;;5237358;28;20028;-60
2022/07/16 02:14:43;;;;;;;1.67;1.50;;;13.60;99.90;;;;;;5238938;28;20020;-61
2022/07/16 02:17:19;;;;;;;2.05;1.52;;;13.60;99.90;;;;;;5221168;28;20025;-60
2022/07/16 02:19:53;;;;;;;2.47;1.90;;;13.60;99.90;;;;;;5221210;28;20043;-58
2022/07/16 02:22:24;;;;;;;1.83;1.63;;;13.60;99.90;;;;;;5219400;28;20395;-60
2022/07/16 02:24:56;;;;;;;1.88;1.67;;;13.60;99.90;;;;;;5201525;28;20028;-61
2022/07/16 02:27:30;;;;;;;4.75;1.88;;;13.70;99.90;;;;;;5237760;28;20024;-60
2022/07/16 02:30:05;;;;;;;3.33;1.60;;;13.70;99.90;;;;;;5217792;28;20031;-63
2022/07/16 02:32:37;;;;;;;;;;;13.60;99.90;;;;;;5220603;28;20020;-59
2022/07/16 02:35:10;;;;;;;2.92;1.80;;;13.60;99.90;;;;;;5239167;28;19907;-61
2022/07/16 02:37:44;;;;;;;4.03;1.60;;;13.60;99.90;;;;;;5205092;28;20033;-61
2022/07/16 02:40:18;;;;;;;1.98;1.55;;;13.60;99.90;;;;;;5204366;28;20038;-59
2022/07/16 02:42:51;;;;;;;2.28;1.92;;;13.60;99.90;;;;;;5201708;28;20031;-61
2022/07/16 02:45:25;;;;;;;1.77;1.60;;;13.60;99.90;;;;;;5221114;28;20036;-60
2022/07/16 02:48:03;;;;;;;9.57;1.85;;;13.60;99.90;;;;;;5255199;28;20026;-60
2022/07/16 02:50:35;;;;;;;2.95;1.70;;;13.60;99.90;;;;;;5218242;28;20028;-61
2022/07/16 02:53:07;;;;;;;3.53;2.00;;;13.60;99.90;;;;;;5234894;28;20016;-61
2022/07/16 02:55:41;;;;;;;1.98;1.77;;;13.60;99.90;;;;;;5236809;28;20023;-60
2022/07/16 02:58:12;;;;;;;1.88;1.73;;;13.60;99.90;;;;;;5199666;28;20025;-61
2022/07/16 03:00:44;;;;;;;2.15;2.00;;;13.60;99.90;;;;;;5234526;28;20210;-61
2022/07/16 03:03:17;;;;;;;3.45;1.90;;;13.50;99.90;;;;;;5198213;28;20025;-60
2022/07/16 03:05:51;;;;;;;1.67;1.48;;;13.60;99.90;;;;;;5216912;28;20036;-60
2022/07/16 03:08:22;;;;;;;1.92;1.83;;;13.60;99.90;;;;;;5236209;28;20024;-61
2022/07/16 03:10:56;;;;;;;1.10;1.00;;;13.50;99.90;;;;;;5236959;28;20028;-62
2022/07/16 03:13:27;;;;;;;1.90;1.77;;;13.50;99.90;;;;;;5236204;28;20035;-61
2022/07/16 03:16:05;;;;;;;2.60;1.60;;;13.50;99.90;;;;;;5238089;28;20027;-59
2022/07/16 03:18:41;;;;;;;1.58;1.48;;;13.40;99.90;;;;;;5234963;28;20335;-61
2022/07/16 03:21:13;;;;;;;3.45;2.15;;;13.40;99.90;;;;;;5214965;28;20021;-60
2022/07/16 03:23:49;;;;;;;2.05;1.85;;;13.40;99.90;;;;;;5208549;28;20032;-60
2022/07/16 03:26:23;;;;;;;2.08;1.63;;;13.40;99.90;;;;;;5197421;28;20036;-60
2022/07/16 03:28:56;;;;;;;2.08;1.88;;;13.30;99.90;;;;;;5215460;28;20031;-59
2022/07/16 03:31:28;;;;;;;1.98;1.80;;;13.40;99.90;;;;;;5235874;28;20030;-60
2022/07/16 03:34:02;;;;;;;1.63;1.52;;;13.40;99.90;;;;;;5235252;28;20016;-60
2022/07/16 03:36:35;;;;;;;2.88;2.13;;;13.50;99.90;;;;;;5234219;28;20029;-59
2022/07/16 03:39:09;;;;;;;2.88;2.17;;;13.60;99.90;;;;;;5220413;28;20025;-60
2022/07/16 03:41:43;;;;;;;2.20;1.80;;;13.70;99.90;;;;;;5239423;28;20020;-60
2022/07/16 03:44:14;;;;;;;2.20;1.87;;;13.70;99.90;;;;;;5208388;28;20035;-60
2022/07/16 03:46:48;;;;;;;2.00;1.70;;;13.70;99.90;;;;;;5219033;28;20273;-59
2022/07/16 03:49:19;;;;;;;4.15;2.10;;;13.70;99.90;;;;;;5225543;28;20030;-60
2022/07/16 03:51:52;;;;;;;2.83;1.83;;;13.80;99.90;;;;;;5220504;28;20024;-60
2022/07/16 03:54:23;;;;;;;2.13;1.92;;;14.00;99.90;;;;;;5251864;28;20020;-60
2022/07/16 03:56:59;;;;;;;2.08;1.90;;;14.00;99.90;;;;;;5229798;28;20305;-61
2022/07/16 03:59:33;;;;;;;1.85;1.33;;;14.10;99.90;;;;;;5245729;28;20212;-60
2022/07/16 04:02:07;;;;;;;2.00;1.90;;;14.10;99.90;;;;;;5227889;28;20199;-61
2022/07/16 04:04:38;;;;;;;2.92;1.73;;;14.20;99.90;;;;;;5233134;28;20091;-61
2022/07/16 04:07:12;;;;;;;2.33;1.98;;;14.20;99.90;;;;;;5213738;28;20034;-59
2022/07/16 04:09:45;;;;;;;2.10;1.95;;;14.30;99.90;;;;;;5241705;28;20188;-62
2022/07/16 04:12:19;;;;;;;1.97;1.60;;;14.50;99.90;;;;;;5240491;28;20035;-61
2022/07/16 04:14:54;;;;;;;3.20;1.73;;;14.70;99.90;;;;;;5223788;28;20020;-63
2022/07/16 04:17:25;;;;;;;1.65;1.55;;;14.80;99.90;;;;;;5222945;28;20023;-60
2022/07/16 04:19:58;;;;;;;3.30;1.70;;;15.00;99.90;;;;;;5240382;28;20020;-61
2022/07/16 04:22:29;;;;;;;3.33;1.98;;;15.10;99.90;;;;;;5219825;28;20266;-60
2022/07/16 04:25:00;;;;;;;1.80;1.70;;;15.30;99.90;;;;;;5239949;28;20339;-61
2022/07/16 04:27:34;;;;;;;1.77;1.55;;;15.60;99.90;;;;;;5240607;28;20032;-60
2022/07/16 04:30:09;;;;;;;2.15;1.70;;;15.90;99.90;;;;;;5218354;28;20320;-61
2022/07/16 04:32:41;;;;;;;1.70;1.60;;;16.00;99.90;;;;;;5219515;28;20031;-60
2022/07/16 04:35:14;;;;;;;2.33;1.80;;;16.20;99.90;;;;;;5201887;28;20040;-62
2022/07/16 04:37:48;;;;;;;1.77;1.50;;;16.40;99.90;;;;;;5220877;28;20028;-61
2022/07/16 04:40:21;;;;;;;1.90;1.70;;;16.50;99.90;;;;;;5238806;28;20021;-61
2022/07/16 04:42:55;;;;;;;2.45;1.95;;;16.70;99.90;;;;;;5222992;28;20302;-62
2022/07/16 04:45:26;;;;;;;1.60;1.47;;;16.90;99.90;;;;;;5237546;28;20298;-62
2022/07/16 04:47:58;;;;;;;2.30;2.10;;;17.10;99.90;;;;;;5219327;28;20265;-61
2022/07/16 04:50:29;;;;;;;1.90;1.75;;;17.40;99.90;;;;;;5237477;28;20221;-62
2022/07/16 04:53:04;;;;;;;1.60;1.38;;;17.60;99.90;;;;;;5223530;28;20028;-62
2022/07/16 04:55:38;;;;;;;1.30;1.20;;;17.80;99.90;;;;;;5204261;28;20054;-61
2022/07/16 04:58:12;;;;;;;4.38;2.00;;;18.10;99.90;;;;;;5220880;28;20022;-62
2022/07/16 05:00:44;;;;;;;1.40;1.30;;;18.30;99.90;;;;;;5221803;28;20036;-62
2022/07/16 05:03:15;;;;;;;1.85;1.35;;;18.60;99.90;;;;;;5239266;28;20046;-62
2022/07/16 05:05:51;;;;;;;2.10;1.85;;;18.80;99.90;;;;;;5229802;28;20067;-63
2022/07/16 05:08:26;;;;;;;1.65;1.40;;;19.10;99.90;;;;;;5237961;28;20025;-62
2022/07/16 05:10:57;;;;;;;;;;;19.40;99.90;;;;;;5223262;28;20816;-60
2022/07/16 05:13:31;;;;;;;2.15;1.33;;;19.50;99.90;;;;;;5226072;28;20534;-62
2022/07/16 05:16:03;;;;;;;1.75;1.60;;;19.70;99.90;;;;;;5234378;28;20021;-61
2022/07/16 05:18:39;;;;;;;1.60;1.50;;;20.10;99.90;;;;;;5232467;28;20055;-62
2022/07/16 05:21:10;;;;;;;1.40;1.20;;;20.60;99.90;;;;;;5238920;28;20021;-61
2022/07/16 05:23:41;;;;;;;1.40;1.30;;;20.70;99.90;;;;;;5219580;28;20146;-62
2022/07/16 05:26:15;;;;;;;2.38;1.30;;;20.70;99.90;;;;;;5219817;28;20032;-62
2022/07/16 05:28:46;;;;;;;1.52;1.20;;;21.00;99.90;;;;;;5182655;28;20048;-62
2022/07/16 05:31:22;;;;;;;2.60;1.58;;;21.10;99.90;;;;;;5200566;28;20024;-63
2022/07/16 05:33:56;;;;;;;2.15;1.25;;;21.40;99.90;;;;;;5216793;28;20205;-62
2022/07/16 05:36:27;;;;;;;3.40;1.30;;;21.30;99.90;;;;;;5236608;28;20222;-61
2022/07/16 05:39:01;;;;;;;2.10;1.48;;;21.30;99.90;;;;;;5219394;28;20051;-61
2022/07/16 05:41:32;;;;;;;1.92;1.50;;;21.20;99.90;;;;;;5221671;28;20210;-61
2022/07/16 05:44:09;;;;;;;2.38;1.25;;;21.50;99.90;;;;;;5233250;28;20028;-62
2022/07/16 05:46:40;;;;;;;2.25;1.50;;;21.80;99.90;;;;;;5218104;28;20032;-62
2022/07/16 05:49:11;;;;;;;1.40;1.30;;;21.60;99.90;;;;;;5235723;28;20033;-60
2022/07/16 05:51:42;;;;;;;1.30;1.20;;;21.70;99.90;;;;;;5237319;28;20021;-60
2022/07/16 05:54:16;;;;;;;1.30;1.20;;;22.20;99.90;;;;;;5235787;28;20037;-60
2022/07/16 05:56:47;;;;;;;2.07;1.50;;;22.50;99.90;;;;;;5219464;28;20023;-61
2022/07/16 05:59:18;;;;;;;1.40;1.30;;;22.90;99.90;;;;;;5220256;28;20030;-62
2022/07/16 06:01:50;;;;;;;1.63;1.52;;;23.10;99.90;;;;;;5238242;28;20023;-62
2022/07/16 06:04:24;;;;;;;1.95;1.05;;;23.40;99.90;;;;;;5227021;28;20032;-62
2022/07/16 06:06:57;;;;;;;2.10;1.38;;;23.50;99.90;;;;;;5237565;28;20024;-62
2022/07/16 06:09:33;;;;;;;1.88;1.15;;;23.80;99.90;;;;;;5219401;28;20036;-62
2022/07/16 06:12:05;;;;;;;1.65;1.40;;;23.90;99.90;;;;;;5219162;28;20027;-62
2022/07/16 06:14:46;;;;;;;1.52;1.30;;;23.80;99.90;;;;;;5229823;28;20024;-61
2022/07/16 06:17:17;;;;;;;1.90;1.35;;;23.70;99.90;;;;;;5218826;28;20034;-63
2022/07/16 06:19:51;;;;;;;2.53;1.55;;;23.90;99.90;;;;;;5234237;28;20036;-62
2022/07/16 06:22:24;;;;;;;1.75;1.65;;;24.10;99.90;;;;;;5219207;28;20044;-61
2022/07/16 06:24:58;;;;;;;1.30;1.00;;;24.60;99.90;;;;;;5238282;28;20025;-62
2022/07/16 06:27:29;;;;;;;1.90;1.30;;;24.70;99.90;;;;;;5219378;28;20020;-61
2022/07/16 06:30:03;;;;;;;1.58;1.48;;;25.20;99.90;;;;;;5217983;28;20020;-61
2022/07/16 06:32:36;;;;;;;1.83;1.52;;;25.30;99.90;;;;;;5232805;28;20490;-62
2022/07/16 06:35:12;;;;;;;2.55;1.77;;;25.40;99.90;;;;;;5245940;28;20020;-61
2022/07/16 06:37:54;;;;;;;1.88;1.50;;;25.00;99.90;;;;;;5224994;28;20024;-61
2022/07/16 06:40:25;;;;;;;1.40;1.20;;;25.10;99.90;;;;;;5259750;28;20304;-59
2022/07/16 06:43:04;;;;;;;1.95;1.25;;;23.70;99.90;;;;;;5219689;28;20036;-60
2022/07/16 06:45:36;;;;;;;1.83;1.27;;;24.10;99.90;;;;;;5238815;28;20020;-60
2022/07/16 06:48:07;;;;;;;2.33;1.42;;;24.80;99.90;;;;;;5242031;28;20294;-61
2022/07/16 06:50:41;;;;;;;1.92;1.40;;;24.50;99.90;;;;;;5258402;28;20028;-61
2022/07/16 06:53:12;;;;;;;3.42;1.35;;;23.80;99.90;;;;;;5259584;28;20031;-60
2022/07/16 06:55:44;;;;;;;1.25;1.08;;;24.40;99.90;;;;;;5234477;28;20404;-61
2022/07/16 06:58:21;;;;;;;3.05;1.98;;;24.90;99.90;;;;;;5217894;28;20027;-61
2022/07/16 07:00:54;;;;;;;1.13;0.95;;;25.10;99.90;;;;;;5212028;28;20198;-62
2022/07/16 07:03:26;;;;;;;2.28;1.13;;;25.50;99.90;;;;;;5231546;28;20248;-62
2022/07/16 07:05:57;;;;;;;1.40;1.30;;;25.90;99.90;;;;;;5224063;28;20041;-62
2022/07/16 07:08:31;;;;;;;1.73;1.27;;;26.10;99.90;;;;;;5243297;28;20298;-62
2022/07/16 07:11:02;;;;;;;0.98;0.88;;;25.80;99.90;;;;;;5244951;28;20039;-62
2022/07/16 07:13:34;;;;;;;1.60;1.30;;;25.10;99.90;;;;;;5234470;28;20241;-61
2022/07/16 07:16:07;;;;;;;1.38;1.20;;;25.00;99.90;;;;;;5225172;28;20025;-62
2022/07/16 07:18:39;;;;;;;2.45;1.55;;;24.60;99.90;;;;;;5240174;28;20020;-61
2022/07/16 07:21:13;;;;;;;1.92;1.35;;;25.00;99.90;;;;;;5228734;28;20225;-60
2022/07/16 07:23:46;;;;;;;3.85;1.50;;;25.20;99.90;;;;;;5221657;28;20047;-61
2022/07/16 07:26:19;;;;;;;1.30;1.20;;;25.10;99.90;;;;;;5241128;28;20327;-62
2022/07/16 07:28:53;;;;;;;1.20;1.10;;;24.90;99.90;;;;;;5201721;28;20315;-61
2022/07/16 07:31:26;;;;;;;1.38;1.20;;;25.30;99.90;;;;;;5234666;28;20040;-61
2022/07/16 07:33:57;;;;;;;1.50;1.13;;;25.60;99.90;;;;;;5204497;28;20301;-62
2022/07/16 07:36:29;;;;;;;1.77;1.38;;;26.10;99.90;;;;;;5215612;28;20034;-63
2022/07/16 07:39:02;;;;;;;1.35;1.25;;;26.60;99.90;;;;;;5240198;28;20202;-61
2022/07/16 07:41:37;;;;;;;1.33;1.23;;;26.60;99.90;;;;;;5218760;28;20024;-62
2022/07/16 07:44:09;;;;;;;2.08;1.40;;;26.70;99.90;;;;;;5239188;28;20036;-60
2022/07/16 07:46:42;;;;;;;1.80;1.00;;;27.10;99.90;;;;;;5227065;28;20034;-62
2022/07/16 07:49:16;;;;;;;1.30;1.20;;;27.10;99.90;;;;;;5224182;28;20028;-62
2022/07/16 07:51:47;;;;;;;1.48;1.08;;;27.20;99.90;;;;;;5238929;28;20028;-60
2022/07/16 07:54:19;;;;;;;3.42;1.15;;;27.40;99.90;;;;;;5218830;28;20036;-63
2022/07/16 07:56:50;;;;;;;2.80;1.35;;;27.30;99.90;;;;;;5242435;28;20026;-61
2022/07/16 07:59:21;;;;;;;3.00;1.30;;;27.40;99.90;;;;;;5222133;28;20500;-62
2022/07/16 08:01:55;;;;;;;1.95;1.20;;;27.50;99.90;;;;;;5236577;28;20024;-61
2022/07/16 08:04:26;;;;;;;1.40;1.20;;;27.40;99.90;;;;;;5210722;28;20137;-63
2022/07/16 08:07:00;;;;;;;1.38;1.00;;;27.30;99.90;;;;;;5253789;28;20031;-64
2022/07/16 08:09:37;;;;;;;1.57;1.00;;;27.20;99.90;;;;;;5224016;28;20012;-62
2022/07/16 08:12:08;;;;;;;3.60;1.40;;;27.60;99.90;;;;;;5240072;28;20029;-62
2022/07/16 08:14:41;;;;;;;1.63;1.13;;;27.80;99.90;;;;;;5242760;28;20233;-60
2022/07/16 08:17:15;;;;;;;1.40;1.23;;;28.10;99.90;;;;;;5248970;28;20205;-61
2022/07/16 08:19:48;;;;;;;1.27;1.17;;;29.00;99.90;;;;;;5263251;28;20252;-60
2022/07/16 08:22:19;;;;;;;1.33;1.20;;;28.80;99.90;;;;;;5253736;28;20031;-62
2022/07/16 08:27:43;;;;;;;3.58;1.90;;;28.40;99.90;;;;;;5218426;28;20037;-64
2022/07/16 08:30:15;;;;;;;1.20;1.10;;;29.00;99.90;;;;;;5235075;28;20032;-60
2022/07/16 08:32:50;;;;;;;1.45;1.27;;;28.20;99.90;;;;;;5237673;28;20354;-62
2022/07/16 08:35:21;;;;;;;1.45;1.33;;;28.80;99.90;;;;;;5207462;28;20029;-62
2022/07/16 08:37:55;;;;;;;2.22;1.70;;;29.40;99.90;;;;;;5241101;28;20021;-63
2022/07/16 08:40:28;;;;;;;1.83;1.40;;;29.30;99.90;;;;;;5216018;28;20029;-62
2022/07/16 08:43:00;;;;;;;2.53;1.42;;;29.90;99.90;;;;;;5222073;28;20317;-62
2022/07/16 08:45:37;;;;;;;2.03;1.42;;;30.00;99.90;;;;;;5239526;28;20034;-63
2022/07/16 08:48:13;;;;;;;2.13;1.40;;;30.10;99.90;;;;;;5228429;28;20037;-62
2022/07/16 08:50:47;;;;;;;3.50;1.70;;;30.20;99.90;;;;;;5221576;28;20029;-62
2022/07/16 08:53:22;;;;;;;1.75;1.20;;;29.50;99.90;;;;;;5240786;28;20028;-61
2022/07/16 08:55:54;;;;;;;2.22;1.40;;;29.40;99.90;;;;;;5242605;28;20032;-62
2022/07/16 08:58:33;;;;;;;1.85;1.65;;;29.70;99.90;;;;;;5241910;28;20213;-62
2022/07/16 09:01:05;;;;;;;1.60;1.17;;;30.80;99.90;;;;;;5221446;28;20032;-62
2022/07/16 09:03:36;;;;;;;1.52;1.42;;;30.70;99.90;;;;;;5205198;28;20230;-64
2022/07/16 09:06:07;;;;;;;1.70;1.38;;;31.60;99.90;;;;;;5223069;28;20036;-61
2022/07/16 09:08:41;;;;;;;1.60;1.40;;;30.80;99.90;;;;;;5238544;28;20318;-62
2022/07/16 09:11:17;;;;;;;;;;;31.00;99.90;;;;;;5220151;28;20032;-61
2022/07/16 09:14:04;;;;;;;1.33;1.20;;;30.40;99.90;;;;;;5222789;28;19900;-62
2022/07/16 09:16:38;;;;;;;1.80;1.42;;;29.40;99.90;;;;;;5238671;28;20028;-62
2022/07/16 09:19:17;;;;;;;1.45;1.30;;;29.10;99.90;;;;;;5240520;28;20020;-62
2022/07/16 09:22:14;;;;;;;1.80;1.30;;;29.40;99.90;;;;;;5218745;28;20024;-62
2022/07/16 09:24:53;;;;;;;2.20;1.40;;;27.40;99.90;;;;;;5220395;28;20032;-61
2022/07/16 09:27:26;;;;;;;1.60;1.30;;;26.60;99.90;;;;;;5237447;28;20024;-61
2022/07/16 09:30:03;;;;;;;2.17;1.30;;;26.20;99.90;;;;;;5203617;28;20104;-63
2022/07/16 09:32:37;;;;;;;1.42;1.05;;;26.00;99.90;;;;;;5237540;28;20018;-62
2022/07/16 09:35:10;;;;;;;3.33;1.60;;;26.10;99.90;;;;;;5234098;28;20020;-60
2022/07/16 09:37:52;;;;;;;1.50;1.30;;;25.60;99.90;;;;;;5230593;28;20024;-62
2022/07/16 09:40:35;;;;;;;1.77;1.27;;;25.30;99.90;;;;;;5237597;28;20038;-61
2022/07/16 09:43:12;;;;;;;1.25;1.13;;;25.30;99.90;;;;;;5239114;28;20032;-60
2022/07/16 09:45:52;;;;;;;1.38;1.10;;;25.70;99.90;;;;;;5241926;28;20215;-63
2022/07/16 09:48:36;;;;;;;1.98;1.35;;;25.90;99.90;;;;;;5220554;28;20054;-62
2022/07/16 09:51:26;;;;;;;1.38;1.23;;;26.50;99.90;;;;;;5239116;28;20027;-61
2022/07/16 09:53:57;;;;;;;6.13;1.52;;;26.90;99.90;;;;;;5217535;28;20046;-61
2022/07/16 09:56:30;;;;;;;1.70;1.20;;;26.70;99.90;;;;;;5216127;28;20114;-60
2022/07/16 09:59:05;;;;;;;1.77;1.58;;;26.50;99.90;;;;;;5228136;28;20476;-61
2022/07/16 10:01:39;;;;;;;2.15;1.67;;;26.30;99.90;;;;;;5240395;28;20302;-61
2022/07/16 10:04:12;;;;;;;1.67;1.55;;;25.90;99.90;;;;;;5194105;28;20054;-61
2022/07/16 10:06:44;;;;;;;1.50;1.40;;;26.30;99.90;;;;;;5202184;28;20021;-62
2022/07/16 10:09:16;;;;;;;1.20;1.10;;;26.20;99.90;;;;;;5219716;28;20197;-61
2022/07/16 10:11:53;;;;;;;2.92;1.85;;;26.30;99.90;;;;;;5219093;28;20052;-61
2022/07/16 10:14:28;;;;;;;1.13;1.02;;;26.00;99.90;;;;;;5237285;28;20024;-60
2022/07/16 10:17:00;;;;;;;1.35;1.10;;;26.30;99.90;;;;;;5217976;28;20055;-62
2022/07/16 10:19:35;;;;;;;2.63;1.27;;;27.00;99.90;;;;;;5237984;28;20030;-61
2022/07/16 10:22:42;;;;;;;2.83;0.90;;;27.80;99.90;;;;;;5213448;28;20033;-61
2022/07/16 10:25:22;;;;;;;1.80;1.17;;;27.60;99.90;;;;;;5207126;28;20163;-60
2022/07/16 10:27:55;;;;;;;1.20;1.10;;;27.10;99.90;;;;;;5218097;28;20314;-61
2022/07/16 10:30:31;;;;;;;1.20;1.10;;;27.40;99.90;;;;;;5199769;28;20029;-60
2022/07/16 10:33:06;;;;;;;1.80;1.25;;;27.70;99.90;;;;;;5215262;28;20215;-61
2022/07/16 10:35:43;;;;;;;2.35;1.27;;;27.90;99.90;;;;;;5233492;28;20034;-61
2022/07/16 10:38:24;;;;;;;1.30;1.20;;;27.60;99.90;;;;;;5235749;28;20023;-60
2022/07/16 10:41:07;;;;;;;1.65;1.10;;;28.10;99.90;;;;;;5235201;28;20023;-61
2022/07/16 10:43:40;;;;;;;2.90;1.48;;;28.20;99.90;;;;;;5235363;28;20032;-61
2022/07/16 10:46:12;;;;;;;1.73;1.20;;;27.30;99.90;;;;;;5199234;28;20035;-60
2022/07/16 10:48:43;;;;;;;3.65;1.42;;;27.00;99.90;;;;;;5217109;28;20032;-61
2022/07/16 10:51:16;;;;;;;1.20;1.10;;;28.00;99.90;;;;;;5230997;28;20034;-62
2022/07/16 10:53:57;;;;;;;1.83;1.00;;;28.80;99.90;;;;;;5216631;28;20196;-61
2022/07/16 10:56:31;;;;;;;1.20;1.10;;;29.50;99.90;;;;;;5215234;28;20024;-61
2022/07/16 10:59:04;;;;;;;1.98;1.02;;;28.80;99.90;;;;;;5219461;28;20024;-60
2022/07/16 11:01:39;;;;;;;1.13;1.02;;;27.70;99.90;;;;;;5242044;28;20320;-61
2022/07/16 11:04:12;;;;;;;1.65;1.45;;;28.80;99.90;;;;;;5225998;28;20028;-61
2022/07/16 11:06:50;;;;;;;1.65;1.55;;;28.80;99.90;;;;;;5235130;28;20420;-62
2022/07/16 11:09:32;;;;;;;1.13;1.05;;;29.40;99.90;;;;;;5233612;28;21076;-61
2022/07/16 11:12:15;;;;;;;2.45;1.10;;;28.10;99.90;;;;;;5233457;28;20024;-61
2022/07/16 11:14:49;;;;;;;1.40;1.20;;;28.90;99.90;;;;;;5217297;28;20033;-62
2022/07/16 11:17:25;;;;;;;1.40;1.23;;;29.50;99.90;;;;;;5235768;28;20181;-62
2022/07/16 11:20:04;;;;;;;2.10;1.15;;;29.20;99.90;;;;;;5217694;28;20310;-61
2022/07/16 11:22:42;;;;;;;1.88;1.27;;;29.00;99.90;;;;;;5233926;28;20022;-62
2022/07/16 11:25:15;;;;;;;1.75;1.60;;;29.80;99.90;;;;;;5234728;28;20039;-61
2022/07/16 11:27:49;;;;;;;1.20;1.02;;;30.50;99.90;;;;;;5237297;28;20038;-62
2022/07/16 11:30:25;;;;;;;1.50;1.40;;;31.30;99.90;;;;;;5217417;28;20032;-60
2022/07/16 11:33:02;;;;;;;1.67;1.55;;;31.10;99.90;;;;;;5215525;28;20024;-61
2022/07/16 11:35:36;;;;;;;1.45;1.20;;;29.30;99.90;;;;;;5185250;28;20032;-61
2022/07/16 11:38:07;;;;;;;1.83;1.40;;;29.00;99.90;;;;;;5236423;28;21021;-61
2022/07/16 11:40:42;;;;;;;2.05;1.25;;;29.20;99.90;;;;;;5232910;28;20047;-62
2022/07/16 11:43:14;;;;;;;1.60;1.40;;;29.50;99.90;;;;;;5215195;28;20025;-61
2022/07/16 11:45:46;;;;;;;1.45;1.35;;;30.30;99.90;;;;;;5234284;28;20016;-64
2022/07/16 11:48:20;;;;;;;2.90;1.48;;;29.80;99.90;;;;;;5217704;28;20012;-62
2022/07/16 11:50:52;;;;;;;2.70;1.35;;;29.10;99.90;;;;;;5238513;28;20026;-61
2022/07/16 11:53:28;;;;;;;2.67;1.48;;;29.80;99.90;;;;;;5215093;28;20024;-60
2022/07/16 11:56:00;;;;;;;1.40;1.30;;;29.40;99.90;;;;;;5231119;28;20028;-61
2022/07/16 11:58:32;;;;;;;1.75;1.38;;;29.00;99.90;;;;;;5231969;28;20201;-61
2022/07/16 12:01:04;;;;;;;1.60;1.30;;;29.40;99.90;;;;;;5234288;28;20016;-62
2022/07/16 12:03:38;;;;;;;3.50;1.70;;;29.10;99.90;;;;;;5234724;28;20092;-62
2022/07/16 12:06:10;;;;;;;;;;;29.80;99.90;;;;;;5214221;28;20303;-62
2022/07/16 12:08:59;;;;;;;1.77;1.50;;;30.00;99.90;;;;;;5232196;28;20119;-61
2022/07/16 12:11:35;;;;;;;2.38;1.30;;;30.10;99.90;;;;;;5221031;28;20316;-62
2022/07/16 12:14:07;;;;;;;2.45;1.42;;;30.60;99.90;;;;;;5219948;28;20321;-61
2022/07/16 12:16:42;;;;;;;1.70;1.40;;;31.10;99.90;;;;;;5243976;28;20045;-62
2022/07/16 12:19:13;;;;;;;;;;;29.90;99.90;;;;;;5205346;28;20025;-59
2022/07/16 12:21:48;;;;;;;1.85;1.30;;;30.00;99.90;;;;;;5241659;28;19900;-61
2022/07/16 12:24:30;;;;;;;1.88;1.30;;;29.30;99.90;;;;;;5242460;28;20020;-60
2022/07/16 12:27:01;;;;;;;1.52;1.30;;;29.00;99.90;;;;;;5242144;28;20149;-60
2022/07/16 12:29:41;;;;;;;1.60;1.30;;;29.30;99.90;;;;;;5220956;28;20225;-62
2022/07/16 12:32:16;;;;;;;1.40;1.02;;;29.60;99.90;;;;;;5237955;28;20016;-60
2022/07/16 12:34:48;;;;;;;1.30;1.20;;;29.00;99.90;;;;;;5241794;28;20338;-62
2022/07/16 12:37:24;;;;;;;1.30;1.20;;;29.30;99.90;;;;;;5242535;28;20032;-61
2022/07/16 12:40:13;;;;;;;1.42;1.33;;;29.90;99.90;;;;;;5237604;28;20016;-61
2022/07/16 12:42:45;;;;;;;3.15;1.95;;;30.10;99.90;;;;;;5220023;28;20043;-62
2022/07/16 12:45:16;;;;;;;4.28;1.65;;;30.30;99.90;;;;;;5237144;28;20051;-61
2022/07/16 12:47:50;;;;;;;1.38;1.27;;;31.70;99.90;;;;;;5223167;28;20032;-60
2022/07/16 12:50:25;;;;;;;2.10;1.25;;;31.20;99.90;;;;;;5237473;28;20008;-60
2022/07/16 12:52:56;;;;;;;1.60;1.25;;;30.50;99.90;;;;;;5239766;28;20047;-62
2022/07/16 13:01:07;;;;;;;3.78;1.50;;;31.10;99.90;;;;;;5224994;28;20028;-60
2022/07/16 13:03:40;;;;;;;1.35;1.25;;;30.10;99.90;;;;;;5239768;28;20342;-61
2022/07/16 13:06:17;;;;;;;2.17;1.48;;;29.40;99.90;;;;;;5216232;28;20041;-62
2022/07/16 13:08:51;;;;;;;2.13;1.40;;;29.50;99.90;;;;;;5241179;28;20024;-60
2022/07/16 13:11:28;;;;;;;1.75;1.48;;;29.90;99.90;;;;;;5203603;28;20051;-60
2022/07/16 13:14:00;;;;;;;3.03;1.60;;;30.40;99.90;;;;;;5239164;28;20030;-61
2022/07/16 13:16:34;;;;;;;1.70;1.40;;;30.30;99.90;;;;;;5241324;28;20046;-61
2022/07/16 13:19:06;;;;;;;1.10;1.10;;;29.90;99.90;;;;;;5220389;28;20029;-62
2022/07/16 13:21:43;;;;;;;1.85;1.30;;;30.90;99.90;;;;;;5222860;28;20485;-61
2022/07/16 13:24:14;;;;;;;1.30;1.20;;;30.80;99.90;;;;;;5228705;28;20229;-63
2022/07/16 13:26:46;;;;;;;1.58;1.40;;;31.80;99.90;;;;;;5208263;28;20028;-60
2022/07/16 13:29:21;;;;;;;1.90;1.60;;;32.50;99.90;;;;;;5239769;28;20033;-60
2022/07/16 13:31:55;;;;;;;2.25;1.48;;;31.90;99.90;;;;;;5240334;28;20028;-60
2022/07/16 13:34:27;;;;;;;1.65;1.50;;;31.10;99.90;;;;;;5235759;28;20038;-62
2022/07/16 13:36:58;;;;;;;2.85;1.45;;;32.10;99.90;;;;;;5235289;28;20286;-62